sensor_id;sensor_type;location;lat;lon;timestamp;pressure;altitude;pressure_sealevel;temperature;humidity
5284;BME280;15377;48.540;9.268;2023-04-15T00:01:59;96500.00;;;1.40;100.00
5284;BME280;15377;48.540;9.268;2023-04-15T00:04:24;96484.31;;;1.35;100.00
5284;BME280;15377;48.540;9.268;2023-04-15T00:06:50;96491.56;;;1.38;100.00
5284;BME280;15377;48.540;9.268;2023-04-15T00:09:17;96492.66;;;1.40;100.00
5284;BME280;15377;48.540;9.268;2023-04-15T00:11:43;96483.97;;;1.33;100.00
5284;BME280;15377;48.540;9.268;2023-04-15T00:14:09;96488.75;;;1.41;100.00
5284;BME280;15377;48.540;9.268;2023-04-15T00:16:34;96468.78;;;1.35;100.00
5284;BME280;15377;48.540;9.268;2023-04-15T00:19:00;96489.38;;;1.45;100.00
5284;BME280;15377;48.540;9.268;2023-04-15T00:21:26;96479.41;;;1.42;100.00
5284;BME280;15377;48.540;9.268;2023-04-15T00:23:53;96489.16;;;1.52;100.00
5284;BME280;15377;48.540;9.268;2023-04-15T00:26:18;96491.75;;;1.56;100.00
5284;BME280;15377;48.540;9.268;2023-04-15T00:28:45;96490.47;;;1.60;100.00
5284;BME280;15377;48.540;9.268;2023-04-15T00:31:12;96489.81;;;1.81;100.00
5284;BME280;15377;48.540;9.268;2023-04-15T00:33:38;96486.94;;;1.97;100.00
5284;BME280;15377;48.540;9.268;2023-04-15T00:36:05;96485.22;;;2.03;100.00
5284;BME280;15377;48.540;9.268;2023-04-15T00:38:31;96488.22;;;2.05;100.00
5284;BME280;15377;48.540;9.268;2023-04-15T00:40:56;96490.72;;;2.12;100.00
5284;BME280;15377;48.540;9.268;2023-04-15T00:43:22;96483.19;;;2.16;100.00
5284;BME280;15377;48.540;9.268;2023-04-15T00:45:48;96481.03;;;2.24;100.00
5284;BME280;15377;48.540;9.268;2023-04-15T00:48:16;96477.78;;;2.16;100.00
5284;BME280;15377;48.540;9.268;2023-04-15T00:50:41;96480.97;;;2.02;100.00
5284;BME280;15377;48.540;9.268;2023-04-15T00:53:07;96491.75;;;1.93;100.00
5284;BME280;15377;48.540;9.268;2023-04-15T00:55:32;96486.75;;;1.92;100.00
5284;BME280;15377;48.540;9.268;2023-04-15T00:57:57;96485.44;;;1.96;100.00
5284;BME280;15377;48.540;9.268;2023-04-15T01:00:23;96485.44;;;1.96;100.00
5284;BME280;15377;48.540;9.268;2023-04-15T01:02:49;96489.66;;;1.97;100.00
5284;BME280;15377;48.540;9.268;2023-04-15T01:05:16;96482.50;;;2.03;100.00
5284;BME280;15377;48.540;9.268;2023-04-15T01:07:42;96487.69;;;2.10;100.00
5284;BME280;15377;48.540;9.268;2023-04-15T01:10:08;96485.47;;;2.18;100.00
5284;BME280;15377;48.540;9.268;2023-04-15T01:12:33;96488.31;;;2.14;100.00
5284;BME280;15377;48.540;9.268;2023-04-15T01:15:00;96494.00;;;1.95;100.00
5284;BME280;15377;48.540;9.268;2023-04-15T01:17:26;96493.50;;;1.87;100.00
5284;BME280;15377;48.540;9.268;2023-04-15T01:19:54;96500.72;;;2.03;100.00
5284;BME280;15377;48.540;9.268;2023-04-15T01:22:20;96488.56;;;1.95;100.00
5284;BME280;15377;48.540;9.268;2023-04-15T01:24:50;96490.78;;;1.75;100.00
5284;BME280;15377;48.540;9.268;2023-04-15T01:27:20;96499.69;;;1.50;100.00
5284;BME280;15377;48.540;9.268;2023-04-15T01:29:45;96477.69;;;1.23;100.00
5284;BME280;15377;48.540;9.268;2023-04-15T01:32:11;96489.69;;;1.10;100.00
5284;BME280;15377;48.540;9.268;2023-04-15T01:34:36;96486.31;;;0.93;100.00
5284;BME280;15377;48.540;9.268;2023-04-15T01:37:01;96492.44;;;0.81;100.00
5284;BME280;15377;48.540;9.268;2023-04-15T01:39:27;96492.53;;;0.78;100.00
5284;BME280;15377;48.540;9.268;2023-04-15T01:41:52;96491.00;;;0.64;100.00
5284;BME280;15377;48.540;9.268;2023-04-15T01:44:18;96499.75;;;0.56;100.00
5284;BME280;15377;48.540;9.268;2023-04-15T01:46:43;96490.72;;;0.46;100.00
5284;BME280;15377;48.540;9.268;2023-04-15T01:49:08;96494.13;;;0.34;100.00
5284;BME280;15377;48.540;9.268;2023-04-15T01:51:34;96492.63;;;0.33;100.00
5284;BME280;15377;48.540;9.268;2023-04-15T01:53:59;96498.88;;;0.30;100.00
5284;BME280;15377;48.540;9.268;2023-04-15T01:56:24;96492.78;;;0.26;100.00
5284;BME280;15377;48.540;9.268;2023-04-15T01:58:50;96482.38;;;0.12;100.00
5284;BME280;15377;48.540;9.268;2023-04-15T02:01:16;96480.81;;;0.11;100.00
5284;BME280;15377;48.540;9.268;2023-04-15T02:03:44;96487.41;;;0.10;100.00
5284;BME280;15377;48.540;9.268;2023-04-15T02:06:09;96487.19;;;0.05;100.00
5284;BME280;15377;48.540;9.268;2023-04-15T02:08:35;96479.47;;;0.03;100.00
5284;BME280;15377;48.540;9.268;2023-04-15T02:11:00;96478.50;;;-0.03;100.00
5284;BME280;15377;48.540;9.268;2023-04-15T02:13:26;96481.84;;;0.01;100.00
5284;BME280;15377;48.540;9.268;2023-04-15T02:15:51;96481.19;;;-0.03;100.00
5284;BME280;15377;48.540;9.268;2023-04-15T02:18:17;96482.72;;;-0.02;100.00
5284;BME280;15377;48.540;9.268;2023-04-15T02:20:43;96474.19;;;0.00;100.00
5284;BME280;15377;48.540;9.268;2023-04-15T02:23:08;96467.16;;;0.02;100.00
5284;BME280;15377;48.540;9.268;2023-04-15T02:25:35;96478.75;;;0.03;100.00
5284;BME280;15377;48.540;9.268;2023-04-15T02:28:01;96466.72;;;0.04;100.00
5284;BME280;15377;48.540;9.268;2023-04-15T02:30:26;96468.78;;;0.00;100.00
5284;BME280;15377;48.540;9.268;2023-04-15T02:32:52;96469.44;;;0.04;100.00
5284;BME280;15377;48.540;9.268;2023-04-15T02:35:17;96450.34;;;-0.05;100.00
5284;BME280;15377;48.540;9.268;2023-04-15T02:37:45;96468.34;;;0.01;100.00
5284;BME280;15377;48.540;9.268;2023-04-15T02:40:11;96463.47;;;-0.03;100.00
5284;BME280;15377;48.540;9.268;2023-04-15T02:42:41;96469.63;;;-0.03;100.00
5284;BME280;15377;48.540;9.268;2023-04-15T02:45:07;96468.88;;;-0.03;100.00
5284;BME280;15377;48.540;9.268;2023-04-15T02:47:33;96466.50;;;-0.02;100.00
5284;BME280;15377;48.540;9.268;2023-04-15T02:49:59;96465.63;;;0.01;100.00
5284;BME280;15377;48.540;9.268;2023-04-15T02:52:26;96469.84;;;0.02;100.00
5284;BME280;15377;48.540;9.268;2023-04-15T02:54:51;96467.94;;;0.31;100.00
5284;BME280;15377;48.540;9.268;2023-04-15T02:57:18;96470.59;;;0.47;100.00
5284;BME280;15377;48.540;9.268;2023-04-15T02:59:43;96469.16;;;0.43;100.00
5284;BME280;15377;48.540;9.268;2023-04-15T03:02:08;96470.47;;;0.38;100.00
5284;BME280;15377;48.540;9.268;2023-04-15T03:04:34;96469.25;;;0.39;100.00
5284;BME280;15377;48.540;9.268;2023-04-15T03:07:01;96465.91;;;0.35;100.00
5284;BME280;15377;48.540;9.268;2023-04-15T03:09:26;96470.97;;;0.33;100.00
5284;BME280;15377;48.540;9.268;2023-04-15T03:11:51;96476.38;;;0.33;100.00
5284;BME280;15377;48.540;9.268;2023-04-15T03:14:18;96463.75;;;0.43;100.00
5284;BME280;15377;48.540;9.268;2023-04-15T03:16:44;96474.41;;;0.50;100.00
5284;BME280;15377;48.540;9.268;2023-04-15T03:19:09;96461.38;;;0.45;100.00
5284;BME280;15377;48.540;9.268;2023-04-15T03:21:35;96463.19;;;0.35;100.00
5284;BME280;15377;48.540;9.268;2023-04-15T03:24:00;96466.59;;;0.23;100.00
5284;BME280;15377;48.540;9.268;2023-04-15T03:26:27;96469.16;;;0.14;100.00
5284;BME280;15377;48.540;9.268;2023-04-15T03:28:53;96472.88;;;0.20;100.00
5284;BME280;15377;48.540;9.268;2023-04-15T03:31:19;96469.16;;;0.14;100.00
5284;BME280;15377;48.540;9.268;2023-04-15T03:33:44;96476.94;;;0.12;100.00
5284;BME280;15377;48.540;9.268;2023-04-15T03:36:09;96477.41;;;-0.05;100.00
5284;BME280;15377;48.540;9.268;2023-04-15T03:38:35;96460.56;;;-0.13;100.00
5284;BME280;15377;48.540;9.268;2023-04-15T03:41:00;96470.13;;;-0.08;100.00
5284;BME280;15377;48.540;9.268;2023-04-15T03:43:26;96469.84;;;0.02;100.00
5284;BME280;15377;48.540;9.268;2023-04-15T03:45:51;96461.97;;;0.24;100.00
5284;BME280;15377;48.540;9.268;2023-04-15T03:48:17;96463.84;;;0.39;100.00
5284;BME280;15377;48.540;9.268;2023-04-15T03:50:42;96467.69;;;0.54;100.00
5284;BME280;15377;48.540;9.268;2023-04-15T03:53:07;96470.22;;;0.61;100.00
5284;BME280;15377;48.540;9.268;2023-04-15T03:55:32;96452.31;;;0.51;100.00
5284;BME280;15377;48.540;9.268;2023-04-15T03:57:58;96466.75;;;0.32;100.00
5284;BME280;15377;48.540;9.268;2023-04-15T04:00:23;96478.13;;;0.11;100.00
5284;BME280;15377;48.540;9.268;2023-04-15T04:02:48;96473.19;;;-0.06;100.00
5284;BME280;15377;48.540;9.268;2023-04-15T04:05:14;96475.78;;;-0.03;100.00
5284;BME280;15377;48.540;9.268;2023-04-15T04:07:39;96473.69;;;-0.11;100.00
5284;BME280;15377;48.540;9.268;2023-04-15T04:10:05;96471.03;;;0.01;100.00
5284;BME280;15377;48.540;9.268;2023-04-15T04:12:31;96478.13;;;-0.05;100.00
5284;BME280;15377;48.540;9.268;2023-04-15T04:14:56;96480.84;;;-0.05;100.00
5284;BME280;15377;48.540;9.268;2023-04-15T04:17:21;96480.19;;;-0.08;100.00
5284;BME280;15377;48.540;9.268;2023-04-15T04:19:47;96486.25;;;-0.20;100.00
5284;BME280;15377;48.540;9.268;2023-04-15T04:22:12;96482.75;;;-0.33;100.00
5284;BME280;15377;48.540;9.268;2023-04-15T04:24:37;96487.44;;;-0.37;100.00
5284;BME280;15377;48.540;9.268;2023-04-15T04:27:04;96496.91;;;-0.13;100.00
5284;BME280;15377;48.540;9.268;2023-04-15T04:29:29;96493.22;;;-0.19;100.00
5284;BME280;15377;48.540;9.268;2023-04-15T04:31:54;96491.63;;;0.11;100.00
5284;BME280;15377;48.540;9.268;2023-04-15T04:34:20;96490.94;;;0.23;100.00
5284;BME280;15377;48.540;9.268;2023-04-15T04:36:45;96493.09;;;0.16;100.00
5284;BME280;15377;48.540;9.268;2023-04-15T04:39:11;96488.13;;;-0.02;100.00
5284;BME280;15377;48.540;9.268;2023-04-15T04:41:36;96485.47;;;0.11;100.00
5284;BME280;15377;48.540;9.268;2023-04-15T04:44:01;96492.00;;;0.13;100.00
5284;BME280;15377;48.540;9.268;2023-04-15T04:46:27;96490.72;;;0.18;100.00
5284;BME280;15377;48.540;9.268;2023-04-15T04:48:53;96483.03;;;0.16;100.00
5284;BME280;15377;48.540;9.268;2023-04-15T04:51:18;96489.59;;;0.31;100.00
5284;BME280;15377;48.540;9.268;2023-04-15T04:53:43;96489.50;;;0.35;100.00
5284;BME280;15377;48.540;9.268;2023-04-15T04:56:09;96481.03;;;0.33;100.00
5284;BME280;15377;48.540;9.268;2023-04-15T04:58:34;96495.75;;;0.32;100.00
5284;BME280;15377;48.540;9.268;2023-04-15T05:01:00;96492.66;;;0.17;100.00
5284;BME280;15377;48.540;9.268;2023-04-15T05:03:27;96493.84;;;0.16;100.00
5284;BME280;15377;48.540;9.268;2023-04-15T05:05:52;96496.88;;;0.18;100.00
5284;BME280;15377;48.540;9.268;2023-04-15T05:08:19;96492.22;;;0.19;100.00
5284;BME280;15377;48.540;9.268;2023-04-15T05:10:44;96494.44;;;0.24;100.00
5284;BME280;15377;48.540;9.268;2023-04-15T05:13:09;96495.25;;;0.21;100.00
5284;BME280;15377;48.540;9.268;2023-04-15T05:15:35;96492.38;;;0.28;100.00
5284;BME280;15377;48.540;9.268;2023-04-15T05:18:03;96504.13;;;0.37;100.00
5284;BME280;15377;48.540;9.268;2023-04-15T05:20:29;96514.31;;;0.46;100.00
5284;BME280;15377;48.540;9.268;2023-04-15T05:22:54;96502.41;;;0.43;100.00
5284;BME280;15377;48.540;9.268;2023-04-15T05:25:20;96500.44;;;0.44;100.00
5284;BME280;15377;48.540;9.268;2023-04-15T05:27:45;96506.19;;;0.74;100.00
5284;BME280;15377;48.540;9.268;2023-04-15T05:30:10;96517.09;;;0.99;100.00
5284;BME280;15377;48.540;9.268;2023-04-15T05:32:36;96508.81;;;0.90;100.00
5284;BME280;15377;48.540;9.268;2023-04-15T05:35:01;96509.78;;;0.84;100.00
5284;BME280;15377;48.540;9.268;2023-04-15T05:37:27;96508.88;;;1.03;100.00
5284;BME280;15377;48.540;9.268;2023-04-15T05:39:52;96514.38;;;0.99;100.00
5284;BME280;15377;48.540;9.268;2023-04-15T05:42:17;96505.41;;;1.02;100.00
5284;BME280;15377;48.540;9.268;2023-04-15T05:44:43;96516.22;;;1.02;100.00
5284;BME280;15377;48.540;9.268;2023-04-15T05:47:08;96497.94;;;1.06;100.00
5284;BME280;15377;48.540;9.268;2023-04-15T05:49:35;96514.94;;;1.19;100.00
5284;BME280;15377;48.540;9.268;2023-04-15T05:52:01;96507.81;;;1.25;100.00
5284;BME280;15377;48.540;9.268;2023-04-15T05:54:26;96509.22;;;1.42;100.00
5284;BME280;15377;48.540;9.268;2023-04-15T05:56:52;96511.72;;;1.62;100.00
5284;BME280;15377;48.540;9.268;2023-04-15T05:59:17;96507.16;;;1.84;100.00
5284;BME280;15377;48.540;9.268;2023-04-15T06:01:43;96504.72;;;2.11;100.00
5284;BME280;15377;48.540;9.268;2023-04-15T06:04:09;96496.31;;;2.30;100.00
5284;BME280;15377;48.540;9.268;2023-04-15T06:06:35;96507.78;;;2.68;100.00
5284;BME280;15377;48.540;9.268;2023-04-15T06:09:01;96517.31;;;2.94;100.00
5284;BME280;15377;48.540;9.268;2023-04-15T06:11:26;96516.44;;;3.19;100.00
5284;BME280;15377;48.540;9.268;2023-04-15T06:13:52;96464.91;;;3.15;100.00
5284;BME280;15377;48.540;9.268;2023-04-15T06:16:17;96508.94;;;3.62;100.00
5284;BME280;15377;48.540;9.268;2023-04-15T06:18:42;96496.69;;;3.57;100.00
5284;BME280;15377;48.540;9.268;2023-04-15T06:21:08;96515.06;;;3.75;100.00
5284;BME280;15377;48.540;9.268;2023-04-15T06:23:35;96527.63;;;3.90;100.00
5284;BME280;15377;48.540;9.268;2023-04-15T06:26:01;96510.13;;;4.00;100.00
5284;BME280;15377;48.540;9.268;2023-04-15T06:28:27;96523.03;;;4.27;100.00
5284;BME280;15377;48.540;9.268;2023-04-15T06:30:56;96520.78;;;4.34;100.00
5284;BME280;15377;48.540;9.268;2023-04-15T06:33:21;96535.78;;;4.39;100.00
5284;BME280;15377;48.540;9.268;2023-04-15T06:35:46;96526.69;;;4.42;100.00
5284;BME280;15377;48.540;9.268;2023-04-15T06:38:13;96528.25;;;4.70;100.00
5284;BME280;15377;48.540;9.268;2023-04-15T06:40:39;96533.81;;;4.93;100.00
5284;BME280;15377;48.540;9.268;2023-04-15T06:43:04;96537.31;;;5.03;100.00
5284;BME280;15377;48.540;9.268;2023-04-15T06:45:30;96544.88;;;5.26;100.00
5284;BME280;15377;48.540;9.268;2023-04-15T06:47:56;96542.09;;;5.44;100.00
5284;BME280;15377;48.540;9.268;2023-04-15T06:50:21;96546.56;;;5.74;100.00
5284;BME280;15377;48.540;9.268;2023-04-15T06:52:47;96544.41;;;5.78;100.00
5284;BME280;15377;48.540;9.268;2023-04-15T06:55:12;96561.19;;;6.03;100.00
5284;BME280;15377;48.540;9.268;2023-04-15T06:57:38;96550.13;;;5.98;100.00
5284;BME280;15377;48.540;9.268;2023-04-15T07:00:04;96545.00;;;5.91;100.00
5284;BME280;15377;48.540;9.268;2023-04-15T07:02:30;96535.88;;;5.94;100.00
5284;BME280;15377;48.540;9.268;2023-04-15T07:04:55;96551.47;;;6.02;100.00
5284;BME280;15377;48.540;9.268;2023-04-15T07:07:21;96549.31;;;6.15;100.00
5284;BME280;15377;48.540;9.268;2023-04-15T07:09:46;96553.41;;;6.11;100.00
5284;BME280;15377;48.540;9.268;2023-04-15T07:12:11;96560.19;;;6.24;100.00
5284;BME280;15377;48.540;9.268;2023-04-15T07:14:37;96551.22;;;6.24;100.00
5284;BME280;15377;48.540;9.268;2023-04-15T07:17:02;96551.16;;;6.33;100.00
5284;BME280;15377;48.540;9.268;2023-04-15T07:19:27;96544.72;;;6.45;100.00
5284;BME280;15377;48.540;9.268;2023-04-15T07:21:53;96548.69;;;6.44;100.00
5284;BME280;15377;48.540;9.268;2023-04-15T07:24:18;96538.56;;;6.35;100.00
5284;BME280;15377;48.540;9.268;2023-04-15T07:26:45;96540.25;;;6.56;100.00
5284;BME280;15377;48.540;9.268;2023-04-15T07:29:10;96548.41;;;6.80;100.00
5284;BME280;15377;48.540;9.268;2023-04-15T07:31:36;96546.00;;;6.82;100.00
5284;BME280;15377;48.540;9.268;2023-04-15T07:34:02;96535.25;;;6.78;100.00
5284;BME280;15377;48.540;9.268;2023-04-15T07:36:28;96533.03;;;7.06;100.00
5284;BME280;15377;48.540;9.268;2023-04-15T07:38:53;96537.03;;;7.33;100.00
5284;BME280;15377;48.540;9.268;2023-04-15T07:41:19;96535.03;;;7.48;100.00
5284;BME280;15377;48.540;9.268;2023-04-15T07:43:46;96532.03;;;7.75;100.00
5284;BME280;15377;48.540;9.268;2023-04-15T07:46:11;96540.94;;;8.19;100.00
5284;BME280;15377;48.540;9.268;2023-04-15T07:48:36;96530.22;;;8.56;100.00
5284;BME280;15377;48.540;9.268;2023-04-15T07:51:02;96523.41;;;8.66;100.00
5284;BME280;15377;48.540;9.268;2023-04-15T07:53:27;96510.84;;;8.59;100.00
5284;BME280;15377;48.540;9.268;2023-04-15T07:55:53;96539.50;;;8.78;100.00
5284;BME280;15377;48.540;9.268;2023-04-15T07:58:18;96533.06;;;8.81;100.00
5284;BME280;15377;48.540;9.268;2023-04-15T08:00:43;96534.03;;;8.78;100.00
5284;BME280;15377;48.540;9.268;2023-04-15T08:03:09;96538.00;;;8.77;100.00
5284;BME280;15377;48.540;9.268;2023-04-15T08:05:35;96538.13;;;8.68;100.00
5284;BME280;15377;48.540;9.268;2023-04-15T08:08:00;96534.56;;;8.82;100.00
5284;BME280;15377;48.540;9.268;2023-04-15T08:10:25;96533.72;;;8.96;100.00
5284;BME280;15377;48.540;9.268;2023-04-15T08:12:51;96539.47;;;9.18;100.00
5284;BME280;15377;48.540;9.268;2023-04-15T08:15:19;96536.50;;;9.47;100.00
5284;BME280;15377;48.540;9.268;2023-04-15T08:17:44;96530.53;;;9.74;100.00
5284;BME280;15377;48.540;9.268;2023-04-15T08:20:10;96538.53;;;10.03;100.00
5284;BME280;15377;48.540;9.268;2023-04-15T08:22:36;96533.19;;;10.25;100.00
5284;BME280;15377;48.540;9.268;2023-04-15T08:25:01;96534.34;;;10.55;100.00
5284;BME280;15377;48.540;9.268;2023-04-15T08:27:33;96526.56;;;11.01;100.00
5284;BME280;15377;48.540;9.268;2023-04-15T08:29:59;96528.63;;;11.17;100.00
5284;BME280;15377;48.540;9.268;2023-04-15T08:32:24;96540.59;;;11.08;100.00
5284;BME280;15377;48.540;9.268;2023-04-15T08:34:50;96528.69;;;11.50;100.00
5284;BME280;15377;48.540;9.268;2023-04-15T08:37:16;96527.78;;;12.08;100.00
5284;BME280;15377;48.540;9.268;2023-04-15T08:39:41;96527.47;;;12.33;100.00
5284;BME280;15377;48.540;9.268;2023-04-15T08:42:11;96541.72;;;12.65;100.00
5284;BME280;15377;48.540;9.268;2023-04-15T08:44:41;96539.72;;;12.71;99.77
5284;BME280;15377;48.540;9.268;2023-04-15T08:47:07;96546.47;;;12.75;96.88
5284;BME280;15377;48.540;9.268;2023-04-15T08:49:35;96542.25;;;12.58;97.89
5284;BME280;15377;48.540;9.268;2023-04-15T08:52:03;96538.91;;;12.81;98.97
5284;BME280;15377;48.540;9.268;2023-04-15T08:54:29;96531.03;;;13.13;97.48
5284;BME280;15377;48.540;9.268;2023-04-15T08:56:57;96542.16;;;13.48;95.71
5284;BME280;15377;48.540;9.268;2023-04-15T08:59:22;96536.91;;;13.39;91.17
5284;BME280;15377;48.540;9.268;2023-04-15T09:01:51;96538.41;;;13.40;93.29
5284;BME280;15377;48.540;9.268;2023-04-15T09:04:17;96536.16;;;13.44;91.98
5284;BME280;15377;48.540;9.268;2023-04-15T09:06:42;96541.78;;;13.68;89.60
5284;BME280;15377;48.540;9.268;2023-04-15T09:09:08;96545.31;;;13.63;87.80
5284;BME280;15377;48.540;9.268;2023-04-15T09:11:34;96542.25;;;14.07;88.73
5284;BME280;15377;48.540;9.268;2023-04-15T09:14:02;96537.25;;;14.35;86.10
5284;BME280;15377;48.540;9.268;2023-04-15T09:16:28;96535.75;;;14.34;82.21
5284;BME280;15377;48.540;9.268;2023-04-15T09:18:53;96540.56;;;14.33;82.49
5284;BME280;15377;48.540;9.268;2023-04-15T09:21:19;96533.69;;;14.87;85.25
5284;BME280;15377;48.540;9.268;2023-04-15T09:23:59;96534.38;;;15.36;81.23
5284;BME280;15377;48.540;9.268;2023-04-15T09:26:32;96549.34;;;15.83;77.26
5284;BME280;15377;48.540;9.268;2023-04-15T09:29:09;96542.13;;;16.24;74.68
5284;BME280;15377;48.540;9.268;2023-04-15T09:31:35;96535.31;;;16.25;70.92
5284;BME280;15377;48.540;9.268;2023-04-15T09:34:01;96542.38;;;16.97;65.50
5284;BME280;15377;48.540;9.268;2023-04-15T09:36:27;96549.72;;;18.13;60.75
5284;BME280;15377;48.540;9.268;2023-04-15T09:41:21;96548.66;;;19.84;47.44
5284;BME280;15377;48.540;9.268;2023-04-15T09:43:47;96545.97;;;20.14;45.65
5284;BME280;15377;48.540;9.268;2023-04-15T09:46:13;96541.34;;;20.39;46.11
5284;BME280;15377;48.540;9.268;2023-04-15T09:48:38;96538.72;;;20.41;43.97
5284;BME280;15377;48.540;9.268;2023-04-15T09:51:03;96539.13;;;21.05;44.07
5284;BME280;15377;48.540;9.268;2023-04-15T09:53:33;96549.16;;;20.33;41.62
5284;BME280;15377;48.540;9.268;2023-04-15T09:55:59;96547.69;;;20.92;40.18
5284;BME280;15377;48.540;9.268;2023-04-15T09:58:29;96545.22;;;20.13;42.94
5284;BME280;15377;48.540;9.268;2023-04-15T10:00:56;96534.47;;;19.03;45.53
5284;BME280;15377;48.540;9.268;2023-04-15T10:03:26;96542.09;;;19.31;45.06
5284;BME280;15377;48.540;9.268;2023-04-15T10:05:53;96536.41;;;19.87;44.87
5284;BME280;15377;48.540;9.268;2023-04-15T10:08:21;96544.22;;;19.96;41.68
5284;BME280;15377;48.540;9.268;2023-04-15T10:10:48;96535.38;;;20.27;40.29
5284;BME280;15377;48.540;9.268;2023-04-15T10:13:17;96540.22;;;20.27;40.58
5284;BME280;15377;48.540;9.268;2023-04-15T10:15:44;96540.25;;;20.42;41.09
5284;BME280;15377;48.540;9.268;2023-04-15T10:18:14;96529.25;;;20.59;40.51
5284;BME280;15377;48.540;9.268;2023-04-15T10:20:41;96532.75;;;20.44;41.64
5284;BME280;15377;48.540;9.268;2023-04-15T10:23:07;96543.66;;;19.47;43.67
5284;BME280;15377;48.540;9.268;2023-04-15T10:25:34;96543.56;;;18.28;44.32
5284;BME280;15377;48.540;9.268;2023-04-15T10:28:01;96548.03;;;17.04;46.74
5284;BME280;15377;48.540;9.268;2023-04-15T10:30:27;96540.31;;;17.10;47.85
5284;BME280;15377;48.540;9.268;2023-04-15T10:32:53;96542.44;;;16.52;48.28
5284;BME280;15377;48.540;9.268;2023-04-15T10:35:20;96547.84;;;15.82;49.51
5284;BME280;15377;48.540;9.268;2023-04-15T10:37:46;96534.81;;;15.58;52.85
5284;BME280;15377;48.540;9.268;2023-04-15T10:40:25;96538.06;;;15.01;56.44
5284;BME280;15377;48.540;9.268;2023-04-15T10:42:59;96553.28;;;14.89;56.37
5284;BME280;15377;48.540;9.268;2023-04-15T10:45:27;96551.50;;;14.44;57.20
5284;BME280;15377;48.540;9.268;2023-04-15T10:47:56;96568.97;;;13.99;61.50
5284;BME280;15377;48.540;9.268;2023-04-15T10:50:29;96561.63;;;13.66;64.21
5284;BME280;15377;48.540;9.268;2023-04-15T10:52:56;96567.00;;;13.48;70.46
5284;BME280;15377;48.540;9.268;2023-04-15T10:55:26;96570.88;;;13.34;71.70
5284;BME280;15377;48.540;9.268;2023-04-15T10:58:01;96583.44;;;13.29;75.86
5284;BME280;15377;48.540;9.268;2023-04-15T11:00:31;96578.72;;;13.19;76.68
5284;BME280;15377;48.540;9.268;2023-04-15T11:03:04;96574.19;;;13.27;80.20
5284;BME280;15377;48.540;9.268;2023-04-15T11:05:52;96576.41;;;13.28;78.64
5284;BME280;15377;48.540;9.268;2023-04-15T11:08:18;96578.66;;;13.30;82.08
5284;BME280;15377;48.540;9.268;2023-04-15T11:18:11;96582.78;;;13.07;78.02
5284;BME280;15377;48.540;9.268;2023-04-15T11:20:39;96585.31;;;13.05;76.39
5284;BME280;15377;48.540;9.268;2023-04-15T11:23:05;96592.00;;;13.31;81.69
5284;BME280;15377;48.540;9.268;2023-04-15T11:25:32;96582.59;;;13.51;77.66
5284;BME280;15377;48.540;9.268;2023-04-15T11:27:59;96592.41;;;13.87;74.09
5284;BME280;15377;48.540;9.268;2023-04-15T11:30:27;96579.94;;;14.45;70.54
5284;BME280;15377;48.540;9.268;2023-04-15T11:32:57;96581.69;;;14.72;65.56
5284;BME280;15377;48.540;9.268;2023-04-15T11:35:23;96577.19;;;15.16;61.43
5284;BME280;15377;48.540;9.268;2023-04-15T11:37:49;96579.34;;;15.47;59.35
5284;BME280;15377;48.540;9.268;2023-04-15T11:40:16;96579.19;;;15.58;53.13
5284;BME280;15377;48.540;9.268;2023-04-15T11:42:44;96567.50;;;15.65;51.38
5284;BME280;15377;48.540;9.268;2023-04-15T11:45:11;96577.69;;;15.94;50.64
5284;BME280;15377;48.540;9.268;2023-04-15T11:47:38;96586.00;;;16.44;46.70
5284;BME280;15377;48.540;9.268;2023-04-15T11:52:55;96570.69;;;16.82;49.56
5284;BME280;15377;48.540;9.268;2023-04-15T11:55:21;96582.41;;;16.49;51.00
5284;BME280;15377;48.540;9.268;2023-04-15T11:57:49;96593.25;;;16.16;49.46
5284;BME280;15377;48.540;9.268;2023-04-15T12:00:15;96591.16;;;15.48;46.40
5284;BME280;15377;48.540;9.268;2023-04-15T12:02:42;96591.31;;;15.37;51.36
5284;BME280;15377;48.540;9.268;2023-04-15T12:05:08;96607.44;;;15.14;55.00
5284;BME280;15377;48.540;9.268;2023-04-15T12:07:57;96605.34;;;14.73;59.16
5284;BME280;15377;48.540;9.268;2023-04-15T12:10:23;96617.88;;;14.50;61.48
5284;BME280;15377;48.540;9.268;2023-04-15T12:12:51;96623.84;;;14.30;62.00
5284;BME280;15377;48.540;9.268;2023-04-15T12:15:21;96620.28;;;14.35;65.28
5284;BME280;15377;48.540;9.268;2023-04-15T12:17:47;96624.75;;;14.43;66.22
5284;BME280;15377;48.540;9.268;2023-04-15T12:20:12;96621.13;;;14.83;64.36
5284;BME280;15377;48.540;9.268;2023-04-15T12:22:38;96621.88;;;15.07;60.57
5284;BME280;15377;48.540;9.268;2023-04-15T12:25:03;96620.47;;;15.19;61.95
5284;BME280;15377;48.540;9.268;2023-04-15T12:27:30;96632.41;;;15.75;61.12
5284;BME280;15377;48.540;9.268;2023-04-15T12:30:06;96621.59;;;16.27;60.76
5284;BME280;15377;48.540;9.268;2023-04-15T12:32:34;96623.19;;;16.54;57.25
5284;BME280;15377;48.540;9.268;2023-04-15T12:35:00;96618.66;;;16.38;56.94
5284;BME280;15377;48.540;9.268;2023-04-15T12:37:26;96639.63;;;16.02;58.29
5284;BME280;15377;48.540;9.268;2023-04-15T12:39:51;96628.19;;;15.50;58.93
5284;BME280;15377;48.540;9.268;2023-04-15T12:42:18;96648.03;;;14.82;63.00
5284;BME280;15377;48.540;9.268;2023-04-15T12:44:44;96648.13;;;14.07;64.70
5284;BME280;15377;48.540;9.268;2023-04-15T12:47:10;96646.13;;;13.56;71.55
5284;BME280;15377;48.540;9.268;2023-04-15T12:49:36;96653.44;;;13.54;73.70
5284;BME280;15377;48.540;9.268;2023-04-15T12:52:02;96654.50;;;13.45;77.67
5284;BME280;15377;48.540;9.268;2023-04-15T12:54:29;96673.72;;;13.67;78.11
5284;BME280;15377;48.540;9.268;2023-04-15T12:56:54;96674.84;;;13.94;78.97
5284;BME280;15377;48.540;9.268;2023-04-15T12:59:20;96664.81;;;13.91;82.44
5284;BME280;15377;48.540;9.268;2023-04-15T13:01:48;96666.75;;;14.07;80.46
5284;BME280;15377;48.540;9.268;2023-04-15T13:04:17;96668.19;;;14.19;74.55
5284;BME280;15377;48.540;9.268;2023-04-15T13:06:43;96667.06;;;13.98;69.07
5284;BME280;15377;48.540;9.268;2023-04-15T13:09:08;96670.16;;;13.78;69.11
5284;BME280;15377;48.540;9.268;2023-04-15T13:11:34;96686.03;;;13.72;74.21
5284;BME280;15377;48.540;9.268;2023-04-15T13:14:01;96682.44;;;13.25;81.15
5284;BME280;15377;48.540;9.268;2023-04-15T13:16:27;96703.56;;;12.90;90.72
5284;BME280;15377;48.540;9.268;2023-04-15T13:18:52;96722.63;;;12.49;97.14